Time;durP1;ratioP1;P1;durP2;ratioP2;P2;SDS_P1;SDS_P2;PMS_P1;PMS_P2;Temp;Humidity;BMP_temperature;BMP_pressure;BME280_temperature;BME280_humidity;BME280_pressure;Samples;Min_cycle;Max_cycle;Signal;HPM_P1;HPM_P2
2022/01/08 00:01:52;;;;;;;;;;;1.80;99.90;;;;;;6115977;23;19987;-80
2022/01/08 00:04:18;;;;;;;;;;;1.40;99.90;;;;;;6144373;23;19921;-80
2022/01/08 00:06:43;;;;;;;;;;;1.40;99.90;;;;;;6143528;23;19931;-80
2022/01/08 00:09:12;;;;;;;;;;;1.30;99.90;;;;;;6144705;23;19928;-80
2022/01/08 00:11:42;;;;;;;;;;;1.30;99.90;;;;;;6120213;23;19995;-81
2022/01/08 00:14:10;;;;;;;;;;;0.60;99.90;;;;;;6143031;23;19920;-81
2022/01/08 00:16:37;;;;;;;;;;;1.30;99.90;;;;;;6147585;23;20253;-81
2022/01/08 00:19:05;;;;;;;;;;;2.30;99.90;;;;;;6145297;23;19944;-81
2022/01/08 00:21:31;;;;;;;;;;;0.60;99.90;;;;;;6143653;23;19937;-81
2022/01/08 00:23:56;;;;;;;;;;;2.80;99.90;;;;;;6119923;23;19924;-80
2022/01/08 00:26:22;;;;;;;;;;;3.00;99.90;;;;;;6121933;23;19924;-80
2022/01/08 00:28:48;;;;;;;;;;;1.40;99.90;;;;;;6144445;23;20330;-82
2022/01/08 00:31:19;;;;;;;;;;;2.10;99.90;;;;;;6148372;23;19925;-82
2022/01/08 00:33:47;;;;;;;;;;;1.80;99.90;;;;;;6119502;23;19924;-82
2022/01/08 00:36:12;;;;;;;;;;;1.50;99.90;;;;;;6143963;23;19925;-81
2022/01/08 00:38:38;;;;;;;;;;;1.40;99.90;;;;;;6147210;23;19971;-81
2022/01/08 00:41:03;;;;;;;;;;;1.30;99.90;;;;;;6150010;23;20647;-81
2022/01/08 00:43:29;;;;;;;;;;;1.40;99.90;;;;;;6118030;23;20084;-81
2022/01/08 00:45:54;;;;;;;;;;;1.30;99.90;;;;;;6146621;23;19967;-81
2022/01/08 00:48:20;;;;;;;;;;;1.40;99.90;;;;;;6122578;23;19921;-81
2022/01/08 00:50:45;;;;;;;;;;;1.40;99.90;;;;;;6145834;23;20340;-81
2022/01/08 00:53:11;;;;;;;;;;;1.40;99.90;;;;;;6143848;23;19955;-82
2022/01/08 00:55:36;;;;;;;;;;;1.40;99.90;;;;;;6143673;23;19921;-81
2022/01/08 00:58:02;;;;;;;;;;;1.40;99.90;;;;;;6119048;23;20042;-81
2022/01/08 01:00:28;;;;;;;;;;;1.40;99.90;;;;;;6119167;23;20282;-81
2022/01/08 01:02:53;;;;;;;;;;;1.40;99.90;;;;;;6121651;23;20356;-81
2022/01/08 01:05:19;;;;;;;;;;;1.40;99.90;;;;;;6141978;23;20060;-81
2022/01/08 01:07:45;;;;;;;;;;;2.50;99.90;;;;;;6146846;23;19973;-83
2022/01/08 01:10:11;;;;;;;;;;;1.30;99.90;;;;;;6147408;23;19925;-82
2022/01/08 01:12:36;;;;;;;;;;;1.30;99.90;;;;;;6145333;23;19995;-81
2022/01/08 01:15:03;;;;;;;;;;;1.30;99.90;;;;;;6143557;23;20357;-81
2022/01/08 01:17:28;;;;;;;;;;;1.30;99.90;;;;;;6144695;23;20413;-81
2022/01/08 01:19:54;;;;;;;;;;;1.30;99.90;;;;;;6142236;23;19999;-80
2022/01/08 01:22:23;;;;;;;;;;;1.30;99.90;;;;;;6143742;23;20612;-81
2022/01/08 01:24:50;;;;;;;;;;;1.30;99.90;;;;;;6146138;23;19924;-81
2022/01/08 01:48:29;;;;;;;;;;;1.30;99.90;;;;;;6121600;23;19924;-82
2022/01/08 01:50:54;;;;;;;;;;;1.30;99.90;;;;;;6117527;23;20003;-81
2022/01/08 01:53:20;;;;;;;;;;;1.30;99.90;;;;;;6146666;23;19994;-81
2022/01/08 01:55:47;;;;;;;;;;;1.30;99.90;;;;;;6125503;23;20408;-85
2022/01/08 01:58:12;;;;;;;;;;;1.30;99.90;;;;;;6143613;23;20589;-83
2022/01/08 02:00:42;;;;;;;;;;;1.30;99.90;;;;;;6148090;23;20317;-83
2022/01/08 02:03:08;;;;;;;;;;;1.30;99.90;;;;;;6119856;23;19936;-83
2022/01/08 02:05:33;;;;;;;;;;;1.30;99.90;;;;;;6143313;23;19924;-84
2022/01/08 02:07:59;;;;;;;;;;;2.30;99.90;;;;;;6142302;23;19931;-83
2022/01/08 02:10:25;;;;;;;;;;;1.30;99.90;;;;;;6143273;23;19928;-82
2022/01/08 02:12:50;;;;;;;;;;;1.30;99.90;;;;;;6147512;23;19924;-82
2022/01/08 02:15:16;;;;;;;;;;;1.40;99.90;;;;;;6118645;23;19921;-82
2022/01/08 02:17:41;;;;;;;;;;;1.30;99.90;;;;;;6120338;23;19952;-81
2022/01/08 02:20:08;;;;;;;;;;;1.30;99.90;;;;;;6145345;23;19952;-82
2022/01/08 02:22:33;;;;;;;;;;;1.40;99.90;;;;;;6143895;23;20011;-82
2022/01/08 02:25:00;;;;;;;;;;;1.40;99.90;;;;;;6121520;23;19924;-81
2022/01/08 02:27:25;;;;;;;;;;;1.40;99.90;;;;;;6120941;23;19932;-81
2022/01/08 02:29:52;;;;;;;;;;;1.40;99.90;;;;;;6122180;23;19921;-82
2022/01/08 02:32:19;;;;;;;;;;;1.40;99.90;;;;;;6148777;23;20412;-82
2022/01/08 02:34:46;;;;;;;;;;;1.70;99.90;;;;;;6145381;23;20293;-82
2022/01/08 02:37:13;;;;;;;;;;;1.40;99.90;;;;;;6121478;23;19924;-81
2022/01/08 02:39:41;;;;;;;;;;;1.40;99.90;;;;;;6150745;23;19928;-81
2022/01/08 02:42:08;;;;;;;;;;;1.40;99.90;;;;;;6120595;23;19920;-81
2022/01/08 02:44:34;;;;;;;;;;;1.40;99.90;;;;;;6121226;23;20047;-82
2022/01/08 02:47:00;;;;;;;;;;;1.40;99.90;;;;;;6149514;23;19978;-82
2022/01/08 02:49:32;;;;;;;;;;;1.40;99.90;;;;;;6120669;23;19931;-81
2022/01/08 02:51:57;;;;;;;;;;;1.40;99.90;;;;;;6145203;23;19920;-81
2022/01/08 02:54:23;;;;;;;;;;;1.40;99.90;;;;;;6148822;23;19943;-81
2022/01/08 02:56:48;;;;;;;;;;;1.40;99.90;;;;;;6144907;23;19924;-81
2022/01/08 02:59:14;;;;;;;;;;;1.40;99.90;;;;;;6145461;23;19924;-81
2022/01/08 03:01:40;;;;;;;;;;;1.40;99.90;;;;;;6145555;23;19925;-81
2022/01/08 03:04:06;;;;;;;;;;;1.40;99.90;;;;;;6120881;23;19920;-81
2022/01/08 03:06:32;;;;;;;;;;;1.40;99.90;;;;;;6147257;23;19928;-82
2022/01/08 03:08:57;;;;;;;;;;;1.40;99.90;;;;;;6120211;23;19916;-81
2022/01/08 03:11:23;;;;;;;;;;;1.40;99.90;;;;;;6147193;23;20289;-81
2022/01/08 03:13:49;;;;;;;;;;;1.40;99.90;;;;;;6146708;23;20341;-81
2022/01/08 03:16:14;;;;;;;;;;;1.40;99.90;;;;;;6144672;23;19928;-81
2022/01/08 03:18:40;;;;;;;;;;;1.30;99.90;;;;;;6121198;23;19992;-81
2022/01/08 03:21:14;;;;;;;;;;;1.30;99.90;;;;;;6147840;23;19920;-79
2022/01/08 03:23:48;;;;;;;;;;;1.30;99.90;;;;;;6151866;23;19944;-80
2022/01/08 03:26:17;;;;;;;;;;;1.30;99.90;;;;;;6153975;23;20415;-81
2022/01/08 03:28:44;;;;;;;;;;;1.30;99.90;;;;;;6143771;23;19925;-81
2022/01/08 03:31:10;;;;;;;;;;;1.30;99.90;;;;;;6144769;23;19927;-81
2022/01/08 03:33:35;;;;;;;;;;;1.20;99.90;;;;;;6147307;23;19951;-80
2022/01/08 03:36:01;;;;;;;;;;;1.20;99.90;;;;;;6146860;23;20289;-80
2022/01/08 03:38:26;;;;;;;;;;;1.20;99.90;;;;;;6119262;23;20304;-80
2022/01/08 03:40:52;;;;;;;;;;;1.20;99.90;;;;;;6145312;23;19924;-80
2022/01/08 03:43:17;;;;;;;;;;;1.20;99.90;;;;;;6123596;23;19921;-80
2022/01/08 03:45:46;;;;;;;;;;;1.20;99.90;;;;;;6119793;23;19930;-80
2022/01/08 03:50:40;;;;;;;;;;;1.10;99.90;;;;;;6143706;23;19924;-81
2022/01/08 03:53:05;;;;;;;;;;;1.10;99.90;;;;;;6146265;23;19932;-80
2022/01/08 03:55:31;;;;;;;;;;;1.10;99.90;;;;;;6144498;23;19952;-80
2022/01/08 03:57:56;;;;;;;;;;;1.10;99.90;;;;;;6144602;23;20004;-80
2022/01/08 04:00:22;;;;;;;;;;;1.10;99.90;;;;;;6143923;23;19996;-81
2022/01/08 04:02:47;;;;;;;;;;;1.10;99.90;;;;;;6146929;23;20361;-80
2022/01/08 04:05:13;;;;;;;;;;;1.10;99.90;;;;;;6146100;23;19927;-80
2022/01/08 04:07:38;;;;;;;;;;;1.10;99.90;;;;;;6119648;23;19925;-80
2022/01/08 04:10:07;;;;;;;;;;;1.00;99.90;;;;;;6125971;23;19921;-81
2022/01/08 04:12:46;;;;;;;;;;;1.00;99.90;;;;;;6120963;23;19931;-81
2022/01/08 04:17:46;;;;;;;;;;;1.00;99.90;;;;;;6147406;23;19920;-81
2022/01/08 04:20:12;;;;;;;;;;;1.00;99.90;;;;;;6147633;23;19950;-81
2022/01/08 04:22:37;;;;;;;;;;;0.90;99.90;;;;;;6147581;23;19927;-81
2022/01/08 04:25:03;;;;;;;;;;;1.00;99.90;;;;;;6148351;23;19924;-81
2022/01/08 04:27:29;;;;;;;;;;;1.00;99.90;;;;;;6143154;23;19936;-81
2022/01/08 04:29:54;;;;;;;;;;;1.00;99.90;;;;;;6145831;23;20226;-81
2022/01/08 04:32:20;;;;;;;;;;;1.00;99.90;;;;;;6144485;23;19921;-82
2022/01/08 04:34:45;;;;;;;;;;;1.00;99.90;;;;;;6146901;23;19917;-81
2022/01/08 04:37:11;;;;;;;;;;;1.00;99.90;;;;;;6147284;23;19920;-81
2022/01/08 04:39:36;;;;;;;;;;;1.00;99.90;;;;;;6143799;23;19948;-81
2022/01/08 04:42:02;;;;;;;;;;;1.00;99.90;;;;;;6143693;23;19932;-81
2022/01/08 04:44:27;;;;;;;;;;;1.00;99.90;;;;;;6120711;23;19928;-82
2022/01/08 04:46:54;;;;;;;;;;;1.00;99.90;;;;;;6121938;23;20202;-81
2022/01/08 04:49:23;;;;;;;;;;;1.00;99.90;;;;;;6144555;23;20298;-81
2022/01/08 04:51:48;;;;;;;;;;;1.00;99.90;;;;;;6144605;23;19929;-81
2022/01/08 04:54:14;;;;;;;;;;;1.10;99.90;;;;;;6144962;23;19978;-81
2022/01/08 04:56:39;;;;;;;;;;;1.10;99.90;;;;;;6146026;23;19932;-81
2022/01/08 04:59:05;;;;;;;;;;;1.20;99.90;;;;;;6144170;23;19921;-82
2022/01/08 05:01:30;;;;;;;;;;;1.20;99.90;;;;;;6147108;23;19928;-81
2022/01/08 05:03:56;;;;;;;;;;;1.30;99.90;;;;;;6120098;23;20407;-79
2022/01/08 05:06:22;;;;;;;;;;;1.30;99.90;;;;;;6118973;23;19924;-81
2022/01/08 05:08:47;;;;;;;;;;;1.80;99.90;;;;;;6118729;23;19924;-81
2022/01/08 05:11:14;;;;;;;;;;;1.30;99.90;;;;;;6147063;23;20507;-81
2022/01/08 05:13:43;;;;;;;;;;;1.30;99.90;;;;;;6144824;23;19932;-81
2022/01/08 05:16:09;;;;;;;;;;;1.30;99.90;;;;;;6143447;23;20290;-82
2022/01/08 05:18:34;;;;;;;;;;;1.30;99.90;;;;;;6147637;23;19967;-81
2022/01/08 05:21:17;;;;;;;;;;;1.30;99.90;;;;;;6144050;23;19920;-80
2022/01/08 05:23:42;;;;;;;;;;;1.30;99.90;;;;;;6118081;23;19931;-81
2022/01/08 05:26:08;;;;;;;;;;;1.30;99.90;;;;;;6146418;23;19921;-81
2022/01/08 05:28:33;;;;;;;;;;;1.30;99.90;;;;;;6122488;23;20651;-81
2022/01/08 05:30:59;;;;;;;;;;;1.90;99.90;;;;;;6147948;23;20660;-82
2022/01/08 05:33:25;;;;;;;;;;;1.30;99.90;;;;;;6119557;23;20606;-83
2022/01/08 05:35:50;;;;;;;;;;;1.30;99.90;;;;;;6143627;23;19921;-82
2022/01/08 05:38:16;;;;;;;;;;;1.30;99.90;;;;;;6154603;23;19921;-83
2022/01/08 05:40:41;;;;;;;;;;;1.30;99.90;;;;;;6134885;23;20231;-81
2022/01/08 05:43:07;;;;;;;;;;;1.30;99.90;;;;;;6124745;23;19932;-83
2022/01/08 05:45:35;;;;;;;;;;;1.30;99.90;;;;;;6143299;23;20391;-82
2022/01/08 05:48:01;;;;;;;;;;;1.20;99.90;;;;;;6143927;23;20003;-83
2022/01/08 05:50:26;;;;;;;;;;;1.30;99.90;;;;;;6144432;23;19921;-83
2022/01/08 05:52:55;;;;;;;;;;;1.30;99.90;;;;;;6123897;23;20333;-82
2022/01/08 05:55:20;;;;;;;;;;;1.20;99.90;;;;;;6124896;23;19920;-83
2022/01/08 05:57:46;;;;;;;;;;;1.20;99.90;;;;;;6125535;23;19967;-82
2022/01/08 06:00:11;;;;;;;;;;;1.20;99.90;;;;;;6147196;23;20337;-82
2022/01/08 06:02:37;;;;;;;;;;;1.20;99.90;;;;;;6151592;23;19944;-83
2022/01/08 06:05:07;;;;;;;;;;;1.20;99.90;;;;;;6148962;23;19929;-82
2022/01/08 06:07:32;;;;;;;;;;;1.20;99.90;;;;;;6147241;23;20033;-82
2022/01/08 06:09:58;;;;;;;;;;;1.20;99.90;;;;;;6121575;23;19920;-82
2022/01/08 06:12:27;;;;;;;;;;;1.20;99.90;;;;;;6146643;23;19931;-80
2022/01/08 06:14:53;;;;;;;;;;;1.20;99.90;;;;;;6143650;23;20322;-81
2022/01/08 06:17:19;;;;;;;;;;;1.20;99.90;;;;;;6147288;23;19924;-82
2022/01/08 06:19:44;;;;;;;;;;;1.60;99.90;;;;;;6122094;23;20385;-82
2022/01/08 06:22:11;;;;;;;;;;;1.30;99.90;;;;;;6149914;23;20245;-83
2022/01/08 06:24:37;;;;;;;;;;;1.30;99.90;;;;;;6152840;23;19972;-82
2022/01/08 06:27:02;;;;;;;;;;;1.30;99.90;;;;;;6149050;23;19921;-82
2022/01/08 06:29:28;;;;;;;;;;;1.30;99.90;;;;;;6147753;23;20292;-82
2022/01/08 06:31:53;;;;;;;;;;;1.30;99.90;;;;;;6121346;23;19921;-82
2022/01/08 06:34:19;;;;;;;;;;;1.30;99.90;;;;;;6145673;23;19931;-82
2022/01/08 06:36:45;;;;;;;;;;;1.30;99.90;;;;;;6121063;23;20007;-83
2022/01/08 06:39:11;;;;;;;;;;;1.30;99.90;;;;;;6148795;23;19928;-82
2022/01/08 06:41:37;;;;;;;;;;;1.30;99.90;;;;;;6148810;23;20285;-82
2022/01/08 06:44:02;;;;;;;;;;;1.30;99.90;;;;;;6145489;23;19947;-82
2022/01/08 06:46:29;;;;;;;;;;;1.30;99.90;;;;;;6121989;23;19928;-82
2022/01/08 06:48:54;;;;;;;;;;;1.30;99.90;;;;;;6148745;23;19921;-82
2022/01/08 06:51:20;;;;;;;;;;;1.30;99.90;;;;;;6118868;23;19951;-82
2022/01/08 06:53:45;;;;;;;;;;;1.30;99.90;;;;;;6120151;23;20448;-82
2022/01/08 06:56:11;;;;;;;;;;;1.30;99.90;;;;;;6120274;23;19920;-81
2022/01/08 06:58:36;;;;;;;;;;;1.30;99.90;;;;;;6119847;23;20619;-81
2022/01/08 07:01:05;;;;;;;;;;;1.20;99.90;;;;;;6148032;23;20000;-82
2022/01/08 07:03:30;;;;;;;;;;;1.20;99.90;;;;;;6145085;23;19928;-81
2022/01/08 07:05:56;;;;;;;;;;;1.20;99.90;;;;;;6145637;23;19928;-81
2022/01/08 07:08:21;;;;;;;;;;;1.20;99.90;;;;;;6095638;23;19972;-82
2022/01/08 07:10:47;;;;;;;;;;;1.10;99.90;;;;;;6157342;23;19931;-81
2022/01/08 07:13:15;;;;;;;;;;;1.10;99.90;;;;;;6144316;23;19933;-81
2022/01/08 07:15:41;;;;;;;;;;;1.10;99.90;;;;;;6123217;23;20016;-80
2022/01/08 07:18:06;;;;;;;;;;;1.10;99.90;;;;;;6120352;23;19928;-81
2022/01/08 07:20:32;;;;;;;;;;;1.10;99.90;;;;;;6145464;23;20226;-81
2022/01/08 07:22:59;;;;;;;;;;;1.10;99.90;;;;;;6119925;23;19924;-81
2022/01/08 07:25:29;;;;;;;;;;;1.10;99.90;;;;;;6143769;23;20578;-80
2022/01/08 07:27:54;;;;;;;;;;;1.10;99.90;;;;;;6147453;23;20269;-81
2022/01/08 07:30:20;;;;;;;;;;;1.10;99.90;;;;;;6143557;23;19932;-82
2022/01/08 07:32:48;;;;;;;;;;;1.10;99.90;;;;;;6148199;23;19925;-82
2022/01/08 07:35:14;;;;;;;;;;;1.10;99.90;;;;;;6148704;23;19920;-83
2022/01/08 07:37:40;;;;;;;;;;;1.10;99.90;;;;;;6120394;23;20201;-83
2022/01/08 07:40:09;;;;;;;;;;;1.20;99.90;;;;;;6149068;23;20385;-83
2022/01/08 07:42:35;;;;;;;;;;;1.20;99.90;;;;;;6148194;23;19924;-82
2022/01/08 07:45:00;;;;;;;;;;;3.20;99.90;;;;;;6120666;23;19925;-83
2022/01/08 07:47:26;;;;;;;;;;;1.20;99.90;;;;;;6119415;23;19924;-83
2022/01/08 07:49:52;;;;;;;;;;;1.20;99.90;;;;;;6143543;23;19922;-84
2022/01/08 07:52:22;;;;;;;;;;;1.20;99.90;;;;;;6120826;23;19956;-85
2022/01/08 07:54:47;;;;;;;;;;;1.20;99.90;;;;;;6146977;23;19935;-82
2022/01/08 07:57:13;;;;;;;;;;;1.20;99.90;;;;;;6122217;23;20322;-84
2022/01/08 07:59:38;;;;;;;;;;;1.20;99.90;;;;;;6148597;23;19928;-82
2022/01/08 08:02:05;;;;;;;;;;;1.20;99.90;;;;;;6123449;23;19921;-83
2022/01/08 08:04:31;;;;;;;;;;;1.20;99.90;;;;;;6122392;23;20028;-86
2022/01/08 08:06:56;;;;;;;;;;;1.20;99.90;;;;;;6149704;23;19960;-82
2022/01/08 08:09:22;;;;;;;;;;;1.20;99.90;;;;;;6146361;23;19921;-83
2022/01/08 08:11:47;;;;;;;;;;;1.20;99.90;;;;;;6148915;23;19921;-83
2022/01/08 08:14:13;;;;;;;;;;;1.20;99.90;;;;;;6118894;23;20036;-84
2022/01/08 08:16:38;;;;;;;;;;;1.20;99.90;;;;;;6147248;23;19987;-83
2022/01/08 08:19:04;;;;;;;;;;;1.20;99.90;;;;;;6148381;23;20214;-84
2022/01/08 08:21:30;;;;;;;;;;;1.20;99.90;;;;;;6148952;23;20007;-85
2022/01/08 08:23:55;;;;;;;;;;;1.30;99.90;;;;;;6148077;23;19932;-84
2022/01/08 08:26:20;;;;;;;;;;;1.20;99.90;;;;;;6119825;23;19920;-83
2022/01/08 08:28:46;;;;;;;;;;;1.30;99.90;;;;;;6147714;23;19924;-84
2022/01/08 08:31:12;;;;;;;;;;;1.30;99.90;;;;;;6123692;23;19943;-83
2022/01/08 08:33:38;;;;;;;;;;;0.60;99.90;;;;;;6121438;23;19996;-84
2022/01/08 08:36:03;;;;;;;;;;;1.40;99.90;;;;;;6148315;23;19948;-83
2022/01/08 08:38:29;;;;;;;;;;;1.40;99.90;;;;;;6122028;23;19924;-84
2022/01/08 08:40:55;;;;;;;;;;;1.50;99.90;;;;;;6120597;23;19928;-84
2022/01/08 08:43:21;;;;;;;;;;;1.50;99.90;;;;;;6146649;23;20341;-84
2022/01/08 08:45:46;;;;;;;;;;;1.50;99.90;;;;;;6121830;23;19943;-84
2022/01/08 08:48:12;;;;;;;;;;;1.60;99.90;;;;;;6121972;23;20032;-85
2022/01/08 08:50:37;;;;;;;;;;;1.60;99.90;;;;;;6147236;23;20249;-83
2022/01/08 08:53:03;;;;;;;;;;;1.70;99.90;;;;;;6124179;23;19951;-85
2022/01/08 08:55:29;;;;;;;;;;;1.70;99.90;;;;;;6119279;23;19948;-83
2022/01/08 08:57:54;;;;;;;;;;;1.70;99.90;;;;;;6148206;23;20047;-84
2022/01/08 09:00:20;;;;;;;;;;;1.70;99.90;;;;;;6121610;23;19944;-83
2022/01/08 09:02:49;;;;;;;;;;;1.80;99.90;;;;;;6148519;23;19936;-83
2022/01/08 09:05:14;;;;;;;;;;;2.80;99.90;;;;;;6147357;23;20199;-84
2022/01/08 09:07:40;;;;;;;;;;;1.80;99.90;;;;;;6123198;23;19924;-84
2022/01/08 09:10:06;;;;;;;;;;;1.80;99.90;;;;;;6145589;23;19996;-84
2022/01/08 09:12:32;;;;;;;;;;;1.80;99.90;;;;;;6148236;23;19983;-83
2022/01/08 09:14:57;;;;;;;;;;;1.90;99.90;;;;;;6122318;23;19925;-83
2022/01/08 09:17:25;;;;;;;;;;;1.90;99.90;;;;;;6145600;23;19990;-82
2022/01/08 09:19:50;;;;;;;;;;;1.90;99.90;;;;;;6121990;23;20720;-82
2022/01/08 09:22:16;;;;;;;;;;;2.00;99.90;;;;;;6146205;23;19956;-83
2022/01/08 09:24:42;;;;;;;;;;;2.00;99.90;;;;;;6119835;23;19952;-82
2022/01/08 09:27:09;;;;;;;;;;;2.10;99.90;;;;;;6156113;23;19990;-83
2022/01/08 09:29:34;;;;;;;;;;;2.10;99.90;;;;;;6121509;23;19947;-83
2022/01/08 09:32:00;;;;;;;;;;;2.20;99.90;;;;;;6149450;23;19921;-82
2022/01/08 09:34:25;;;;;;;;;;;2.30;99.90;;;;;;6146593;23;19988;-82
2022/01/08 09:36:51;;;;;;;;;;;2.40;99.90;;;;;;6145525;23;19924;-82
2022/01/08 09:39:16;;;;;;;;;;;3.00;99.90;;;;;;6145638;23;19925;-81
2022/01/08 09:41:42;;;;;;;;;;;2.70;99.90;;;;;;6118917;23;19932;-80
2022/01/08 09:44:08;;;;;;;;;;;2.70;99.90;;;;;;6115715;23;19920;-82
2022/01/08 09:46:33;;;;;;;;;;;2.70;99.90;;;;;;6115955;23;19927;-83
2022/01/08 09:48:59;;;;;;;;;;;2.70;99.90;;;;;;6140822;23;19959;-79
2022/01/08 09:51:26;;;;;;;;;;;2.70;99.90;;;;;;6140849;23;20024;-81
2022/01/08 09:53:52;;;;;;;;;;;2.70;99.90;;;;;;6141914;23;19925;-81
2022/01/08 09:56:17;;;;;;;;;;;2.70;99.90;;;;;;6139865;23;19971;-82
2022/01/08 09:58:46;;;;;;;;;;;2.80;99.90;;;;;;6145126;23;20419;-82
2022/01/08 10:01:26;;;;;;;;;;;3.00;99.90;;;;;;6142018;23;19992;-82
2022/01/08 10:03:52;;;;;;;;;;;3.20;99.90;;;;;;6115962;23;19936;-83
2022/01/08 10:06:23;;;;;;;;;;;3.90;99.90;;;;;;6141172;23;19925;-84
2022/01/08 10:08:49;;;;;;;;;;;3.40;99.90;;;;;;6153608;23;19932;-83
2022/01/08 10:11:14;;;;;;;;;;;3.70;99.90;;;;;;6119795;23;19920;-84
2022/01/08 10:13:43;;;;;;;;;;;4.00;99.90;;;;;;6140999;23;20246;-84
2022/01/08 10:18:57;;;;;;;;;;;4.20;99.90;;;;;;6115815;23;20478;-82
2022/01/08 10:21:23;;;;;;;;;;;4.20;99.90;;;;;;6141349;23;19924;-82
2022/01/08 10:24:04;;;;;;;;;;;4.20;99.90;;;;;;6115860;23;19925;-81
2022/01/08 10:26:36;;;;;;;;;;;4.10;99.90;;;;;;6115814;23;19925;-83
2022/01/08 10:29:03;;;;;;;;;;;4.10;99.90;;;;;;6139795;23;20239;-81
2022/01/08 10:31:33;;;;;;;;;;;4.00;99.90;;;;;;6142895;23;19936;-81
2022/01/08 10:34:09;;;;;;;;;;;4.00;99.90;;;;;;6118702;23;19995;-82
2022/01/08 10:36:35;;;;;;;;;;;4.00;99.90;;;;;;6143294;23;19928;-81
2022/01/08 10:39:20;;;;;;;;;;;4.00;99.90;;;;;;6142301;23;19952;-80
2022/01/08 10:41:47;;;;;;;;;;;3.90;99.90;;;;;;6119132;23;19928;-81
2022/01/08 10:44:17;;;;;;;;;;;3.90;99.90;;;;;;6142779;23;19932;-81
2022/01/08 10:46:44;;;;;;;;;;;3.70;99.90;;;;;;6142038;23;20314;-81
2022/01/08 10:49:13;;;;;;;;;;;3.70;99.90;;;;;;6142676;23;19956;-80
2022/01/08 10:51:40;;;;;;;;;;;3.60;99.90;;;;;;6121619;23;19925;-82
2022/01/08 10:54:12;;;;;;;;;;;3.60;99.90;;;;;;6149392;23;19982;-84
2022/01/08 10:56:42;;;;;;;;;;;3.50;99.90;;;;;;6145199;23;19921;-83
2022/01/08 10:59:09;;;;;;;;;;;3.40;99.90;;;;;;6144677;23;19960;-81
2022/01/08 11:01:41;;;;;;;;;;;3.40;99.90;;;;;;6143636;23;20568;-80
2022/01/08 11:04:08;;;;;;;;;;;3.30;99.90;;;;;;6120833;23;19924;-83
2022/01/08 11:06:47;;;;;;;;;;;3.20;99.90;;;;;;6149212;23;19920;-82
2022/01/08 11:09:13;;;;;;;;;;;3.10;99.90;;;;;;6147511;23;20302;-80
2022/01/08 11:11:39;;;;;;;;;;;3.10;99.90;;;;;;6148311;23;19943;-82
2022/01/08 11:14:08;;;;;;;;;;;3.10;99.90;;;;;;6147537;23;19920;-82
2022/01/08 11:16:37;;;;;;;;;;;3.00;99.90;;;;;;6147656;23;20309;-81
2022/01/08 11:19:03;;;;;;;;;;;3.10;99.90;;;;;;6123803;23;19967;-82
2022/01/08 11:21:29;;;;;;;;;;;3.20;99.90;;;;;;6147136;23;19928;-84
2022/01/08 11:23:57;;;;;;;;;;;3.30;99.90;;;;;;6144293;23;19925;-80
2022/01/08 11:26:22;;;;;;;;;;;3.40;99.90;;;;;;6126217;23;19944;-80
2022/01/08 11:28:49;;;;;;;;;;;3.40;99.90;;;;;;6153462;23;20008;-80
2022/01/08 11:31:15;;;;;;;;;;;3.40;99.90;;;;;;6149912;23;20307;-80
2022/01/08 11:33:44;;;;;;;;;;;3.50;99.90;;;;;;6153196;23;19932;-80
2022/01/08 11:36:12;;;;;;;;;;;4.60;99.90;;;;;;6155450;23;19921;-78
2022/01/08 11:38:37;;;;;;;;;;;3.40;99.90;;;;;;6145105;23;20214;-80
2022/01/08 11:41:06;;;;;;;;;;;3.40;99.90;;;;;;6123270;23;19937;-82
2022/01/08 11:43:35;;;;;;;;;;;3.40;99.90;;;;;;6149566;23;20011;-81
2022/01/08 11:46:02;;;;;;;;;;;3.40;99.90;;;;;;6150023;23;19924;-85
2022/01/08 11:48:35;;;;;;;;;;;3.40;99.90;;;;;;6147731;23;19924;-82
2022/01/08 11:51:02;;;;;;;;;;;3.40;99.90;;;;;;6149949;23;19995;-82
2022/01/08 11:53:31;;;;;;;;;;;3.40;99.90;;;;;;6124160;23;19927;-77
2022/01/08 11:55:58;;;;;;;;;;;3.40;99.90;;;;;;6146944;23;19927;-84
2022/01/08 11:58:26;;;;;;;;;;;3.40;99.90;;;;;;6148555;23;19920;-88
2022/01/08 12:00:54;;;;;;;;;;;3.40;99.90;;;;;;6147584;23;20404;-84
2022/01/08 12:03:20;;;;;;;;;;;3.50;99.90;;;;;;6148946;23;20234;-87
2022/01/08 12:05:46;;;;;;;;;;;3.40;99.90;;;;;;6124326;23;20265;-84
2022/01/08 12:08:15;;;;;;;;;;;3.40;99.90;;;;;;6149304;23;20004;-89
2022/01/08 12:10:56;;;;;;;;;;;3.40;99.90;;;;;;6121863;23;19932;-85
2022/01/08 12:13:41;;;;;;;;;;;3.40;99.90;;;;;;6146543;23;19991;-83
2022/01/08 12:16:26;;;;;;;;;;;3.40;99.90;;;;;;6124702;23;19928;-85
2022/01/08 12:18:52;;;;;;;;;;;3.40;99.90;;;;;;6125410;23;19928;-83
2022/01/08 12:21:30;;;;;;;;;;;3.40;99.90;;;;;;6147738;23;19927;-82
2022/01/08 12:23:59;;;;;;;;;;;3.40;99.90;;;;;;6120124;23;19936;-84
2022/01/08 12:26:24;;;;;;;;;;;3.40;99.90;;;;;;6147497;23;19920;-84
2022/01/08 12:28:53;;;;;;;;;;;3.40;99.90;;;;;;6148967;23;19920;-86
2022/01/08 12:31:52;;;;;;;;;;;3.40;99.90;;;;;;6144892;23;19925;-82
2022/01/08 12:34:18;;;;;;;;;;;3.40;99.90;;;;;;6143937;23;19921;-83
2022/01/08 12:36:57;;;;;;;;;;;3.40;99.90;;;;;;6120522;23;19924;-85
2022/01/08 12:39:24;;;;;;;;;;;3.50;99.90;;;;;;6119636;23;20337;-83
2022/01/08 12:41:49;;;;;;;;;;;3.50;99.90;;;;;;6118779;23;19921;-81
2022/01/08 12:44:25;;;;;;;;;;;3.50;99.90;;;;;;6119295;23;19995;-84
2022/01/08 12:46:51;;;;;;;;;;;3.50;99.90;;;;;;6119189;23;19952;-83
2022/01/08 12:49:17;;;;;;;;;;;3.50;99.90;;;;;;6120954;23;19947;-86
2022/01/08 12:51:48;;;;;;;;;;;3.50;99.90;;;;;;6149004;23;19917;-85
2022/01/08 12:54:24;;;;;;;;;;;3.50;99.90;;;;;;6143613;23;19924;-84
2022/01/08 12:56:54;;;;;;;;;;;2.60;99.90;;;;;;6144598;23;19996;-82
2022/01/08 12:59:20;;;;;;;;;;;3.50;99.90;;;;;;6147023;23;20298;-86
2022/01/08 13:01:47;;;;;;;;;;;3.50;99.90;;;;;;6124870;23;19929;-86
2022/01/08 13:04:25;;;;;;;;;;;3.40;99.90;;;;;;6132094;23;19971;-85
2022/01/08 13:06:54;;;;;;;;;;;3.50;99.90;;;;;;6126963;23;19967;-85
2022/01/08 13:09:25;;;;;;;;;;;4.20;99.90;;;;;;6123992;23;19921;-86
2022/01/08 13:11:51;;;;;;;;;;;3.60;99.90;;;;;;6123174;23;19920;-83
2022/01/08 13:14:30;;;;;;;;;;;3.50;99.90;;;;;;6123576;23;20225;-87
2022/01/08 13:16:56;;;;;;;;;;;1.80;99.90;;;;;;6147088;23;19965;-85
2022/01/08 13:19:26;;;;;;;;;;;3.20;99.90;;;;;;6146975;23;19952;-84
2022/01/08 13:21:53;;;;;;;;;;;3.50;99.90;;;;;;6147291;23;19920;-84
2022/01/08 13:24:32;;;;;;;;;;;3.50;99.90;;;;;;6145882;23;19932;-86
2022/01/08 13:26:58;;;;;;;;;;;3.50;99.90;;;;;;6146027;23;19932;-83
2022/01/08 13:29:43;;;;;;;;;;;3.70;99.90;;;;;;6142977;23;19920;-82
2022/01/08 13:32:26;;;;;;;;;;;3.50;99.90;;;;;;6145269;23;20211;-86
2022/01/08 13:34:55;;;;;;;;;;;3.50;99.90;;;;;;6115474;23;19921;-83
2022/01/08 13:37:22;;;;;;;;;;;3.20;99.90;;;;;;6144106;23;19924;-81
2022/01/08 13:39:50;;;;;;;;;;;4.20;99.90;;;;;;6143880;23;20047;-87
2022/01/08 13:42:35;;;;;;;;;;;4.30;99.90;;;;;;6143778;23;20345;-83
2022/01/08 13:45:17;;;;;;;;;;;3.50;99.90;;;;;;6145695;23;20337;-83
2022/01/08 13:47:47;;;;;;;;;;;3.50;99.90;;;;;;6148657;23;19939;-82
2022/01/08 13:50:25;;;;;;;;;;;3.30;99.90;;;;;;6122920;23;19920;-90
2022/01/08 13:53:00;;;;;;;;;;;3.50;99.90;;;;;;6146595;23;19947;-85
2022/01/08 13:55:40;;;;;;;;;;;3.50;99.90;;;;;;6146075;23;19931;-87
2022/01/08 13:58:09;;;;;;;;;;;3.40;99.90;;;;;;6120880;23;20011;-87
2022/01/08 14:00:36;;;;;;;;;;;3.40;99.90;;;;;;6123764;23;19928;-88
2022/01/08 14:03:20;;;;;;;;;;;3.10;99.90;;;;;;6150513;23;19920;-87
2022/01/08 14:05:46;;;;;;;;;;;3.40;99.90;;;;;;6122776;23;19936;-83
2022/01/08 14:08:24;;;;;;;;;;;3.40;99.90;;;;;;6149112;23;20000;-92
2022/01/08 14:10:58;;;;;;;;;;;3.30;99.90;;;;;;6146058;23;19995;-84
2022/01/08 14:13:25;;;;;;;;;;;2.90;99.90;;;;;;6147674;23;20327;-83
2022/01/08 14:16:23;;;;;;;;;;;3.30;99.90;;;;;;6126983;23;19921;-87
2022/01/08 14:18:49;;;;;;;;;;;3.30;99.90;;;;;;6059337;23;20367;-85
2022/01/08 14:21:19;;;;;;;;;;;3.20;99.90;;;;;;6147902;23;20007;-81
2022/01/08 14:23:48;;;;;;;;;;;3.30;99.90;;;;;;6148631;23;19916;-84
2022/01/08 14:26:33;;;;;;;;;;;4.10;99.90;;;;;;6147901;23;19940;-85
2022/01/08 14:29:04;;;;;;;;;;;3.30;99.90;;;;;;6153140;23;19929;-85
2022/01/08 14:31:30;;;;;;;;;;;3.20;99.90;;;;;;6156662;23;19970;-92
2022/01/08 14:34:08;;;;;;;;;;;3.20;99.90;;;;;;6150568;23;20380;-86
2022/01/08 14:36:46;;;;;;;;;;;3.20;99.90;;;;;;6123860;23;20289;-87
2022/01/08 14:39:13;;;;;;;;;;;3.20;99.90;;;;;;6124037;23;19930;-84
2022/01/08 14:41:40;;;;;;;;;;;3.20;99.90;;;;;;6146923;23;19931;-85
2022/01/08 14:44:06;;;;;;;;;;;3.10;99.90;;;;;;6147775;23;19920;-83
2022/01/08 14:46:31;;;;;;;;;;;3.10;99.90;;;;;;6145142;23;20067;-80
2022/01/08 14:48:57;;;;;;;;;;;3.10;99.90;;;;;;6149728;23;20055;-87
2022/01/08 14:51:29;;;;;;;;;;;3.00;99.90;;;;;;6144612;23;19920;-83
2022/01/08 14:53:56;;;;;;;;;;;3.00;99.90;;;;;;6118721;23;19964;-84
2022/01/08 14:56:22;;;;;;;;;;;3.00;99.90;;;;;;6144747;23;19935;-85
2022/01/08 14:58:48;;;;;;;;;;;3.00;99.90;;;;;;6144642;23;20345;-86
2022/01/08 15:01:14;;;;;;;;;;;3.00;99.90;;;;;;6144546;23;19920;-81
2022/01/08 15:03:39;;;;;;;;;;;3.00;99.90;;;;;;6148831;23;20026;-81